createdAt,value
2018-12-06T00:00:13.785Z,5.37
2018-12-06T00:01:13.483Z,5.44
2018-12-06T00:02:13.411Z,5.37
2018-12-06T00:03:13.435Z,5.38
2018-12-06T00:04:13.508Z,5.36
2018-12-06T00:05:13.391Z,5.41
2018-12-06T00:06:13.485Z,5.39
2018-12-06T00:07:13.381Z,5.41
2018-12-06T00:08:14.304Z,5.42
2018-12-06T00:09:13.533Z,5.37
2018-12-06T00:10:13.413Z,5.43
2018-12-06T00:11:13.417Z,5.45
2018-12-06T00:12:13.633Z,5.48
2018-12-06T00:13:13.453Z,5.47
2018-12-06T00:14:13.445Z,5.5
2018-12-06T00:15:13.379Z,5.43
2018-12-06T00:16:13.787Z,5.45
2018-12-06T00:17:13.490Z,5.48
2018-12-06T00:18:13.643Z,5.64
2018-12-06T00:19:13.509Z,5.57
2018-12-06T00:20:13.571Z,5.62
2018-12-06T00:21:13.628Z,5.58
2018-12-06T00:22:13.789Z,5.6
2018-12-06T00:23:13.462Z,5.61
2018-12-06T00:24:13.618Z,5.63
2018-12-06T00:25:13.416Z,5.68
2018-12-06T00:26:13.553Z,5.62
2018-12-06T00:27:13.568Z,5.63
2018-12-06T00:28:13.398Z,5.68
2018-12-06T00:29:13.519Z,5.65
2018-12-06T00:30:13.435Z,5.62
2018-12-06T00:31:13.523Z,5.62
2018-12-06T00:32:13.535Z,5.6
2018-12-06T00:33:13.474Z,5.66
2018-12-06T00:34:13.541Z,5.64
2018-12-06T00:35:13.367Z,5.63
2018-12-06T00:36:13.624Z,5.67
2018-12-06T00:37:13.634Z,5.63
2018-12-06T00:38:13.402Z,5.66
2018-12-06T00:39:13.391Z,5.71
2018-12-06T00:40:13.344Z,5.67
2018-12-06T00:41:13.363Z,5.67
2018-12-06T00:42:13.345Z,5.62
2018-12-06T00:43:13.361Z,5.61
2018-12-06T00:44:13.404Z,5.6
2018-12-06T00:45:13.427Z,5.61
2018-12-06T00:46:13.349Z,5.65
2018-12-06T00:47:13.355Z,5.63
2018-12-06T00:48:13.363Z,5.61
2018-12-06T00:49:13.661Z,5.62
2018-12-06T00:50:13.400Z,5.63
2018-12-06T00:51:13.393Z,5.63
2018-12-06T00:52:13.629Z,5.65
2018-12-06T00:53:13.374Z,5.68
2018-12-06T00:54:13.380Z,5.68
2018-12-06T00:55:13.499Z,5.66
2018-12-06T00:56:13.368Z,5.67
2018-12-06T00:57:13.858Z,5.67
2018-12-06T00:58:13.372Z,5.58
2018-12-06T00:59:13.359Z,5.59
2018-12-06T01:00:13.766Z,5.58
2018-12-06T01:01:13.975Z,5.54
2018-12-06T01:02:13.535Z,5.53
2018-12-06T01:03:14.157Z,5.54
2018-12-06T01:04:13.327Z,5.55
2018-12-06T01:05:13.625Z,5.55
2018-12-06T01:06:13.387Z,5.49
2018-12-06T01:07:13.434Z,5.48
2018-12-06T01:08:13.627Z,5.51
2018-12-06T01:09:13.376Z,5.53
2018-12-06T01:10:13.431Z,5.53
2018-12-06T01:11:13.531Z,5.6
2018-12-06T01:12:13.435Z,5.64
2018-12-06T01:13:13.508Z,5.58
2018-12-06T01:14:13.636Z,5.6
2018-12-06T01:15:13.725Z,5.56
2018-12-06T01:16:13.547Z,5.6
2018-12-06T01:17:13.350Z,5.56
2018-12-06T01:18:13.541Z,5.57
2018-12-06T01:19:13.363Z,5.58
2018-12-06T01:20:13.390Z,5.54
2018-12-06T01:21:13.898Z,5.53
2018-12-06T01:22:13.316Z,5.58
2018-12-06T01:23:13.474Z,5.54
2018-12-06T01:24:13.381Z,5.53
2018-12-06T01:25:13.421Z,5.53
2018-12-06T01:26:13.461Z,5.56
2018-12-06T01:27:13.459Z,5.57
2018-12-06T01:28:13.390Z,5.56
2018-12-06T01:29:13.407Z,5.61
2018-12-06T01:30:13.595Z,5.62
2018-12-06T01:31:13.687Z,5.61
2018-12-06T01:32:13.330Z,5.66
2018-12-06T01:33:13.322Z,5.66
2018-12-06T01:34:13.273Z,5.63
2018-12-06T01:35:13.318Z,5.62
2018-12-06T01:36:13.457Z,5.63
2018-12-06T01:37:13.343Z,5.59
2018-12-06T01:38:13.315Z,5.55
2018-12-06T01:39:13.540Z,5.64
2018-12-06T01:40:13.297Z,5.6
2018-12-06T01:41:13.580Z,5.63
2018-12-06T01:42:13.399Z,5.64
2018-12-06T01:43:13.331Z,5.63
2018-12-06T01:44:13.430Z,5.64
2018-12-06T01:45:13.591Z,5.67
2018-12-06T01:46:13.321Z,5.63
2018-12-06T01:47:13.343Z,5.65
2018-12-06T01:48:13.301Z,5.64
2018-12-06T01:49:13.478Z,5.64
2018-12-06T01:50:13.263Z,5.62
2018-12-06T01:51:13.325Z,5.58
2018-12-06T01:52:13.432Z,5.59
2018-12-06T01:53:13.315Z,5.59
2018-12-06T01:54:13.392Z,5.61
2018-12-06T01:55:13.385Z,5.61
2018-12-06T01:56:13.335Z,5.6
2018-12-06T01:57:13.284Z,5.62
2018-12-06T01:58:13.306Z,5.64
2018-12-06T01:59:13.276Z,5.67
2018-12-06T02:00:13.553Z,5.67
2018-12-06T02:01:13.295Z,5.65
2018-12-06T02:02:13.333Z,5.64
2018-12-06T02:03:13.466Z,5.66
2018-12-06T02:04:13.378Z,5.69
2018-12-06T02:05:13.290Z,5.7
2018-12-06T02:06:13.327Z,5.67
2018-12-06T02:07:13.417Z,5.68
2018-12-06T02:08:13.210Z,5.72
2018-12-06T02:09:13.364Z,5.73
2018-12-06T02:10:13.336Z,5.7
2018-12-06T02:11:13.279Z,5.68
2018-12-06T02:12:13.247Z,5.72
2018-12-06T02:13:13.251Z,5.69
2018-12-06T02:14:13.229Z,5.72
2018-12-06T02:15:13.235Z,5.66
2018-12-06T02:16:13.238Z,5.71
2018-12-06T02:17:13.282Z,5.68
2018-12-06T02:18:13.237Z,5.64
2018-12-06T02:19:13.286Z,5.67
2018-12-06T02:20:13.224Z,5.68
2018-12-06T02:21:13.299Z,5.67
2018-12-06T02:22:13.233Z,5.69
2018-12-06T02:23:13.225Z,5.76
2018-12-06T02:24:13.280Z,5.69
2018-12-06T02:25:13.225Z,5.69
2018-12-06T02:26:13.278Z,5.66
2018-12-06T02:27:13.200Z,5.67
2018-12-06T02:28:13.377Z,5.63
2018-12-06T02:29:13.217Z,5.65
2018-12-06T02:30:13.222Z,5.65
2018-12-06T02:31:13.270Z,5.66
2018-12-06T02:32:13.330Z,5.7
2018-12-06T02:33:13.258Z,5.74
2018-12-06T02:34:13.670Z,5.74
2018-12-06T02:35:13.583Z,5.73
2018-12-06T02:36:13.403Z,5.72
2018-12-06T02:37:13.313Z,5.78
2018-12-06T02:38:13.734Z,5.75
2018-12-06T02:39:13.383Z,5.72
2018-12-06T02:40:13.228Z,5.71
2018-12-06T02:41:13.460Z,5.72
2018-12-06T02:42:13.276Z,5.74
2018-12-06T02:43:13.236Z,5.75
2018-12-06T02:44:13.288Z,5.77
2018-12-06T02:45:13.426Z,5.76
2018-12-06T02:46:13.366Z,5.81
2018-12-06T02:47:13.179Z,5.79
2018-12-06T02:48:13.285Z,5.75
2018-12-06T02:49:13.306Z,5.78
2018-12-06T02:50:13.198Z,5.74
2018-12-06T02:51:13.263Z,5.73
2018-12-06T02:52:13.275Z,5.69
2018-12-06T02:53:13.324Z,5.71
2018-12-06T02:54:13.301Z,5.7
2018-12-06T02:55:13.336Z,5.72
2018-12-06T02:56:13.271Z,5.77
2018-12-06T02:57:13.197Z,5.69
2018-12-06T02:58:13.169Z,5.71
2018-12-06T02:59:13.281Z,5.71
2018-12-06T03:00:13.351Z,5.7
2018-12-06T03:01:13.361Z,5.72
2018-12-06T03:02:13.351Z,5.72
2018-12-06T03:03:13.531Z,5.67
2018-12-06T03:04:13.315Z,5.69
2018-12-06T03:05:13.167Z,5.74
2018-12-06T03:06:13.188Z,5.75
2018-12-06T03:07:13.334Z,5.75
2018-12-06T03:08:13.305Z,5.74
2018-12-06T03:09:13.397Z,5.76
2018-12-06T03:10:13.237Z,5.8
2018-12-06T03:11:13.432Z,5.8
2018-12-06T03:12:13.169Z,5.79
2018-12-06T03:13:13.247Z,5.79
2018-12-06T03:14:13.308Z,5.81
2018-12-06T03:15:13.322Z,5.85
2018-12-06T03:16:13.373Z,5.82
2018-12-06T03:17:13.241Z,5.79
2018-12-06T03:18:13.234Z,5.81
2018-12-06T03:19:13.179Z,5.81
2018-12-06T03:20:13.341Z,5.8
2018-12-06T03:21:13.233Z,5.82
2018-12-06T03:22:13.308Z,5.81
2018-12-06T03:23:13.277Z,5.79
2018-12-06T03:24:13.183Z,5.79
2018-12-06T03:25:13.221Z,5.79
2018-12-06T03:26:13.707Z,5.79
2018-12-06T03:27:13.473Z,5.81
2018-12-06T03:28:13.341Z,5.78
2018-12-06T03:29:13.162Z,5.76
2018-12-06T03:30:13.224Z,5.76
2018-12-06T03:31:13.421Z,5.77
2018-12-06T03:32:13.298Z,5.77
2018-12-06T03:33:13.247Z,5.78
2018-12-06T03:34:13.440Z,5.79
2018-12-06T03:35:13.469Z,5.78
2018-12-06T03:36:13.263Z,5.75
2018-12-06T03:37:13.195Z,5.76
2018-12-06T03:38:13.175Z,5.75
2018-12-06T03:39:13.322Z,5.79
2018-12-06T03:40:13.126Z,5.79
2018-12-06T03:41:13.270Z,5.84
2018-12-06T03:42:13.200Z,5.84
2018-12-06T03:43:13.480Z,5.85
2018-12-06T03:44:13.249Z,5.82
2018-12-06T03:45:13.188Z,5.81
2018-12-06T03:46:13.167Z,5.81
2018-12-06T03:47:13.377Z,5.77
2018-12-06T03:48:13.971Z,5.78
2018-12-06T03:49:13.123Z,5.73
2018-12-06T03:50:13.287Z,5.78
2018-12-06T03:51:13.267Z,5.8
2018-12-06T03:52:13.241Z,5.83
2018-12-06T03:53:13.177Z,5.86
2018-12-06T03:54:13.194Z,5.88
2018-12-06T03:55:13.126Z,5.88
2018-12-06T03:56:13.164Z,5.88
2018-12-06T03:57:13.159Z,5.87
2018-12-06T03:58:13.205Z,5.84
2018-12-06T03:59:13.141Z,5.84
2018-12-06T04:00:13.185Z,5.86
2018-12-06T04:01:13.171Z,5.88
2018-12-06T04:02:13.130Z,5.87
2018-12-06T04:03:13.111Z,5.88
2018-12-06T04:04:13.156Z,5.9
2018-12-06T04:05:13.287Z,5.88
2018-12-06T04:06:13.079Z,5.89
2018-12-06T04:07:13.100Z,5.9
2018-12-06T04:08:13.117Z,5.9
2018-12-06T04:09:13.447Z,5.95
2018-12-06T04:10:13.130Z,5.94
2018-12-06T04:11:13.155Z,5.88
2018-12-06T04:12:13.117Z,5.92
2018-12-06T04:13:13.649Z,5.94
2018-12-06T04:14:13.296Z,5.94
2018-12-06T04:15:13.200Z,5.91
2018-12-06T04:16:13.478Z,5.92
2018-12-06T04:17:13.145Z,5.92
2018-12-06T04:18:13.246Z,5.91
2018-12-06T04:19:13.459Z,5.92
2018-12-06T04:20:13.353Z,5.9
2018-12-06T04:21:13.283Z,5.94
2018-12-06T04:22:13.178Z,5.92
2018-12-06T04:23:13.318Z,5.94
2018-12-06T04:24:13.923Z,5.95
2018-12-06T04:25:13.159Z,5.94
2018-12-06T04:26:13.467Z,5.93
2018-12-06T04:27:13.180Z,5.94
2018-12-06T04:28:13.189Z,5.97
2018-12-06T04:29:13.258Z,5.99
2018-12-06T04:30:13.321Z,5.99
2018-12-06T04:31:13.053Z,5.96
2018-12-06T04:32:13.150Z,5.96
2018-12-06T04:33:13.676Z,5.97
2018-12-06T04:34:13.365Z,5.96
2018-12-06T04:35:13.232Z,5.96
2018-12-06T04:36:13.206Z,6.01
2018-12-06T04:37:13.217Z,6.01
2018-12-06T04:38:13.632Z,6.02
2018-12-06T04:39:13.349Z,5.98
2018-12-06T04:40:13.780Z,6.01
2018-12-06T04:41:13.428Z,6.05
2018-12-06T04:42:13.265Z,6.03
2018-12-06T04:43:13.396Z,6.04
2018-12-06T04:44:13.028Z,6.04
2018-12-06T04:45:13.054Z,6
2018-12-06T04:46:13.125Z,6.02
2018-12-06T04:47:14.504Z,6.01
2018-12-06T04:48:22.550Z,6.02
2018-12-06T04:49:13.067Z,6.05
2018-12-06T04:50:13.177Z,6.02
2018-12-06T04:51:13.284Z,5.99
2018-12-06T04:52:13.279Z,6.04
2018-12-06T04:53:13.127Z,6.04
2018-12-06T04:54:13.182Z,6.09
2018-12-06T04:55:13.073Z,6.04
2018-12-06T04:56:13.067Z,6.09
2018-12-06T04:57:13.194Z,6.11
2018-12-06T04:58:13.266Z,6.19
2018-12-06T04:59:13.140Z,6.18
2018-12-06T05:00:13.330Z,6.12
2018-12-06T05:01:13.086Z,6.2
2018-12-06T05:02:13.111Z,6.16
2018-12-06T05:03:13.128Z,6.17
2018-12-06T05:04:13.176Z,6.18
2018-12-06T05:05:13.230Z,6.14
2018-12-06T05:06:13.053Z,6.16
2018-12-06T05:07:13.020Z,6.2
2018-12-06T05:08:13.067Z,6.24
2018-12-06T05:09:13.145Z,6.21
2018-12-06T05:10:13.018Z,6.18
2018-12-06T05:11:13.151Z,6.17
2018-12-06T05:12:13.829Z,6.19
2018-12-06T05:13:13.107Z,6.18
2018-12-06T05:14:13.079Z,6.16
2018-12-06T05:15:13.070Z,6.16
2018-12-06T05:16:13.227Z,6.23
2018-12-06T05:17:13.095Z,6.32
2018-12-06T05:18:13.014Z,6.29
2018-12-06T05:19:13.096Z,6.22
2018-12-06T05:20:13.343Z,6.23
2018-12-06T05:21:13.116Z,6.21
2018-12-06T05:22:13.056Z,6.26
2018-12-06T05:23:14.269Z,6.29
2018-12-06T05:24:13.179Z,6.28
2018-12-06T05:25:13.108Z,6.32
2018-12-06T05:26:13.019Z,6.41
2018-12-06T05:27:13.116Z,6.35
2018-12-06T05:28:13.186Z,6.33
2018-12-06T05:29:13.075Z,6.31
2018-12-06T05:30:13.066Z,6.4
2018-12-06T05:31:13.307Z,6.35
2018-12-06T05:32:13.138Z,6.36
2018-12-06T05:33:13.093Z,6.35
2018-12-06T05:34:13.114Z,6.35
2018-12-06T05:35:12.987Z,6.39
2018-12-06T05:36:13.024Z,6.4
2018-12-06T05:37:12.984Z,6.4
2018-12-06T05:38:13.026Z,6.39
2018-12-06T05:39:13.070Z,6.36
2018-12-06T05:40:13.103Z,6.36
2018-12-06T05:41:13.384Z,6.39
2018-12-06T05:42:13.066Z,6.41
2018-12-06T05:43:13.111Z,6.43
2018-12-06T05:44:12.994Z,6.39
2018-12-06T05:45:13.225Z,6.41
2018-12-06T05:46:13.098Z,6.41
2018-12-06T05:47:13.001Z,6.46
2018-12-06T05:48:13.098Z,6.5
2018-12-06T05:49:13.100Z,6.47
2018-12-06T05:50:13.073Z,6.46
2018-12-06T05:51:14.568Z,6.46
2018-12-06T05:52:12.986Z,6.46
2018-12-06T05:53:13.099Z,6.47
2018-12-06T05:54:13.053Z,6.44
2018-12-06T05:55:13.776Z,6.46
2018-12-06T05:56:13.034Z,6.48
2018-12-06T05:57:13.022Z,6.47
2018-12-06T05:58:13.071Z,6.46
2018-12-06T05:59:12.984Z,6.51
2018-12-06T06:00:13.061Z,6.52
2018-12-06T06:01:12.996Z,6.58
2018-12-06T06:02:13.180Z,6.54
2018-12-06T06:03:13.216Z,6.5
2018-12-06T06:04:13.026Z,6.48
2018-12-06T06:05:13.097Z,6.52
2018-12-06T06:06:13.358Z,6.5
2018-12-06T06:07:13.795Z,6.51
2018-12-06T06:08:12.941Z,6.55
2018-12-06T06:09:13.587Z,6.56
2018-12-06T06:10:13.170Z,6.56
2018-12-06T06:11:13.124Z,6.57
2018-12-06T06:12:13.329Z,6.55
2018-12-06T06:13:12.978Z,6.53
2018-12-06T06:14:13.093Z,6.53
2018-12-06T06:15:13.042Z,6.64
2018-12-06T06:16:13.134Z,6.63
2018-12-06T06:17:13.114Z,6.61
2018-12-06T06:18:13.042Z,6.6
2018-12-06T06:19:12.918Z,6.59
2018-12-06T06:20:13.047Z,6.63
2018-12-06T06:21:13.233Z,6.62
2018-12-06T06:22:13.072Z,6.59
2018-12-06T06:23:13.201Z,6.58
2018-12-06T06:24:12.951Z,6.57
2018-12-06T06:25:13.084Z,6.56
2018-12-06T06:26:13.136Z,6.54
2018-12-06T06:27:13.061Z,6.57
2018-12-06T06:28:13.181Z,6.58
2018-12-06T06:29:13.213Z,6.59
2018-12-06T06:30:13.130Z,6.6
2018-12-06T06:31:13.063Z,6.59
2018-12-06T06:32:12.903Z,6.6
2018-12-06T06:33:13.048Z,6.55
2018-12-06T06:34:13.073Z,6.58
2018-12-06T06:35:13.143Z,6.64
2018-12-06T06:36:13.355Z,6.62
2018-12-06T06:37:13.189Z,6.63
2018-12-06T06:38:13.165Z,6.63
2018-12-06T06:39:13.107Z,6.63
2018-12-06T06:40:13.161Z,6.63
2018-12-06T06:41:12.997Z,6.61
2018-12-06T06:42:13.107Z,6.67
2018-12-06T06:43:13.119Z,6.66
2018-12-06T06:44:13.102Z,6.67
2018-12-06T06:45:12.925Z,6.65
2018-12-06T06:46:13.136Z,6.67
2018-12-06T06:47:13.482Z,6.65
2018-12-06T06:48:13.118Z,6.67
2018-12-06T06:49:14.417Z,6.68
2018-12-06T06:50:13.100Z,6.73
2018-12-06T06:51:13.127Z,6.72
2018-12-06T06:52:13.118Z,6.69
2018-12-06T06:53:12.900Z,6.67
2018-12-06T06:54:13.204Z,6.72
2018-12-06T06:55:12.958Z,6.73
2018-12-06T06:56:13.069Z,6.7
2018-12-06T06:57:13.247Z,6.73
2018-12-06T06:58:13.144Z,6.72
2018-12-06T06:59:12.890Z,6.82
2018-12-06T07:00:12.890Z,6.79
2018-12-06T07:01:13.565Z,6.8
2018-12-06T07:02:12.878Z,6.82
2018-12-06T07:03:13.139Z,6.84
2018-12-06T07:04:12.982Z,6.86
2018-12-06T07:05:13.078Z,6.92
2018-12-06T07:06:13.389Z,6.92
2018-12-06T07:07:13.030Z,6.96
2018-12-06T07:08:12.892Z,6.99
2018-12-06T07:09:13.239Z,7.03
2018-12-06T07:10:13.178Z,7.03
2018-12-06T07:11:13.148Z,7.04
2018-12-06T07:12:13.021Z,7.03
2018-12-06T07:13:13.122Z,7.07
2018-12-06T07:14:12.857Z,7.05
2018-12-06T07:15:12.884Z,7.07
2018-12-06T07:16:13.048Z,7.05
2018-12-06T07:17:12.969Z,7.04
2018-12-06T07:18:12.909Z,7.04
2018-12-06T07:19:12.896Z,7.05
2018-12-06T07:20:12.907Z,7.03
2018-12-06T07:21:12.928Z,7.01
2018-12-06T07:22:12.869Z,6.97
2018-12-06T07:23:13.100Z,6.93
2018-12-06T07:24:13.288Z,6.95
2018-12-06T07:25:13.058Z,6.95
2018-12-06T07:26:12.912Z,6.93
2018-12-06T07:27:12.835Z,6.94
2018-12-06T07:28:13.047Z,6.96
2018-12-06T07:29:12.839Z,6.96
2018-12-06T07:30:13.005Z,6.96
2018-12-06T07:31:12.906Z,6.95
2018-12-06T07:32:12.841Z,6.97
2018-12-06T07:33:13.229Z,6.98
2018-12-06T07:34:13.236Z,7
2018-12-06T07:35:12.842Z,6.99
2018-12-06T07:36:12.830Z,7
2018-12-06T07:37:12.905Z,7.02
2018-12-06T07:38:13.119Z,7.05
2018-12-06T07:39:12.908Z,7.04
2018-12-06T07:40:12.895Z,7
2018-12-06T07:41:14.809Z,6.98
2018-12-06T07:42:13.011Z,7.01
2018-12-06T07:43:13.155Z,7
2018-12-06T07:44:12.813Z,7.05
2018-12-06T07:45:13.136Z,7.01
2018-12-06T07:46:13.049Z,7.03
2018-12-06T07:47:12.842Z,7.07
2018-12-06T07:48:13.683Z,7.08
2018-12-06T07:49:13.094Z,7.05
2018-12-06T07:50:13.054Z,7.17
2018-12-06T07:51:12.871Z,7.19
2018-12-06T07:52:13.058Z,7.2
2018-12-06T07:53:12.902Z,7.25
2018-12-06T07:54:14.256Z,7.22
2018-12-06T07:55:13.093Z,7.24
2018-12-06T07:56:13.036Z,7.2
2018-12-06T07:57:13.024Z,7.2
2018-12-06T07:58:12.987Z,7.2
2018-12-06T07:59:13.020Z,7.21
2018-12-06T08:00:13.303Z,7.19
2018-12-06T08:01:13.100Z,7.22
2018-12-06T08:02:13.037Z,7.21
2018-12-06T08:03:13.017Z,7.2
2018-12-06T08:04:12.910Z,7.17
2018-12-06T08:05:12.822Z,7.22
2018-12-06T08:06:13.005Z,7.19
2018-12-06T08:07:13.048Z,7.21
2018-12-06T08:08:13.638Z,7.21
2018-12-06T08:09:13.432Z,7.19
2018-12-06T08:10:16.055Z,7.21
2018-12-06T08:11:12.815Z,7.18
2018-12-06T08:12:13.057Z,7.17
2018-12-06T08:13:13.110Z,7.19
2018-12-06T08:14:12.963Z,7.26
2018-12-06T08:15:12.819Z,7.21
2018-12-06T08:16:13.002Z,7.24
2018-12-06T08:17:13.168Z,7.25
2018-12-06T08:18:13.238Z,7.21
2018-12-06T08:19:14.262Z,7.2
2018-12-06T08:20:12.791Z,7.24
2018-12-06T08:21:12.901Z,7.23
2018-12-06T08:22:12.831Z,7.23
2018-12-06T08:23:12.903Z,7.23
2018-12-06T08:24:13.024Z,7.27
2018-12-06T08:25:13.006Z,7.24
2018-12-06T08:26:12.867Z,7.27
2018-12-06T08:27:12.824Z,7.26
2018-12-06T08:28:12.993Z,7.32
2018-12-06T08:29:13.000Z,7.3
2018-12-06T08:30:12.963Z,7.31
2018-12-06T08:31:12.790Z,7.35
2018-12-06T08:32:12.833Z,7.37
2018-12-06T08:33:13.147Z,7.36
2018-12-06T08:34:12.911Z,7.35
2018-12-06T08:35:13.068Z,7.33
2018-12-06T08:36:12.832Z,7.32
2018-12-06T08:37:12.836Z,7.36
2018-12-06T08:38:12.897Z,7.37
2018-12-06T08:39:13.194Z,7.36
2018-12-06T08:40:12.851Z,7.38
2018-12-06T08:41:12.862Z,7.36
2018-12-06T08:42:12.942Z,7.37
2018-12-06T08:43:12.877Z,7.39
2018-12-06T08:44:13.292Z,7.37
2018-12-06T08:45:12.837Z,7.4
2018-12-06T08:46:13.037Z,7.4
2018-12-06T08:47:13.039Z,7.39
2018-12-06T08:48:12.911Z,7.44
2018-12-06T08:49:12.770Z,7.44
2018-12-06T08:50:12.775Z,7.47
2018-12-06T08:51:12.777Z,7.5
2018-12-06T08:52:12.899Z,7.55
2018-12-06T08:53:12.742Z,7.61
2018-12-06T08:54:12.885Z,7.65
2018-12-06T08:55:12.762Z,7.65
2018-12-06T08:56:12.750Z,7.67
2018-12-06T08:57:12.771Z,7.67
2018-12-06T08:58:12.781Z,7.71
2018-12-06T08:59:15.979Z,7.7
2018-12-06T09:00:12.831Z,7.7
2018-12-06T09:01:12.733Z,7.7
2018-12-06T09:02:12.981Z,7.77
2018-12-06T09:03:12.714Z,7.73
2018-12-06T09:04:12.722Z,7.77
2018-12-06T09:05:12.726Z,7.72
2018-12-06T09:06:12.819Z,7.71
2018-12-06T09:07:12.711Z,7.72
2018-12-06T09:08:12.730Z,7.75
2018-12-06T09:09:12.781Z,7.74
2018-12-06T09:10:12.793Z,7.75
2018-12-06T09:11:12.996Z,7.81
2018-12-06T09:12:12.745Z,7.75
2018-12-06T09:13:12.734Z,7.77
2018-12-06T09:14:12.709Z,7.76
2018-12-06T09:15:12.766Z,7.77
2018-12-06T09:16:12.841Z,7.81
2018-12-06T09:17:12.733Z,7.82
2018-12-06T09:18:13.226Z,7.83
2018-12-06T09:19:14.885Z,7.86
2018-12-06T09:20:12.901Z,7.82
2018-12-06T09:21:13.064Z,7.86
2018-12-06T09:22:12.812Z,7.91
2018-12-06T09:23:12.726Z,7.94
2018-12-06T09:24:13.038Z,7.93
2018-12-06T09:25:12.802Z,7.95
2018-12-06T09:26:12.937Z,7.97
2018-12-06T09:27:12.762Z,7.99
2018-12-06T09:28:12.902Z,8
2018-12-06T09:29:13.072Z,7.99
2018-12-06T09:30:12.845Z,8.04
2018-12-06T09:31:12.805Z,8.09
2018-12-06T09:32:12.693Z,8.12
2018-12-06T09:33:12.781Z,8.19
2018-12-06T09:34:12.701Z,8.18
2018-12-06T09:35:12.795Z,8.17
2018-12-06T09:36:12.768Z,8.16
2018-12-06T09:37:12.961Z,8.24
2018-12-06T09:38:12.703Z,8.26
2018-12-06T09:39:12.707Z,8.26
2018-12-06T09:40:12.896Z,8.35
2018-12-06T09:41:12.725Z,8.36
2018-12-06T09:42:12.911Z,8.36
2018-12-06T09:43:12.985Z,8.42
2018-12-06T09:44:12.732Z,8.36
2018-12-06T09:45:13.157Z,8.36
2018-12-06T09:46:12.812Z,8.4
2018-12-06T09:47:12.723Z,8.42
2018-12-06T09:48:12.789Z,8.42
2018-12-06T09:49:13.385Z,8.49
2018-12-06T09:50:12.830Z,8.5
2018-12-06T09:51:13.058Z,8.53
2018-12-06T09:52:13.166Z,8.55
2018-12-06T09:53:12.799Z,8.63
2018-12-06T09:54:12.893Z,8.6
2018-12-06T09:55:12.672Z,8.62
2018-12-06T09:56:12.781Z,8.7
2018-12-06T09:57:12.744Z,8.72
2018-12-06T09:58:12.671Z,8.68
2018-12-06T09:59:12.849Z,8.72
2018-12-06T10:00:13.003Z,8.79
2018-12-06T10:01:13.118Z,8.78
2018-12-06T10:02:12.710Z,8.72
2018-12-06T10:03:12.719Z,8.76
2018-12-06T10:04:13.204Z,8.77
2018-12-06T10:05:12.755Z,8.86
2018-12-06T10:06:13.083Z,8.86
2018-12-06T10:07:13.059Z,8.86
2018-12-06T10:08:13.114Z,8.97
2018-12-06T10:09:12.844Z,8.93
2018-12-06T10:10:13.772Z,8.93
2018-12-06T10:11:13.144Z,8.92
2018-12-06T10:12:12.819Z,8.97
2018-12-06T10:13:12.693Z,9.04
2018-12-06T10:14:12.804Z,9.08
2018-12-06T10:15:12.715Z,9.06
2018-12-06T10:16:12.752Z,9.1
2018-12-06T10:17:12.762Z,9.14
2018-12-06T10:18:13.512Z,9.15
2018-12-06T10:19:13.462Z,9.2
2018-12-06T10:20:12.740Z,9.15
2018-12-06T10:21:12.847Z,9.16
2018-12-06T10:22:12.823Z,9.14
2018-12-06T10:23:12.589Z,9.13
2018-12-06T10:24:12.641Z,9.12
2018-12-06T10:25:12.779Z,9.17
2018-12-06T10:26:12.776Z,9.12
2018-12-06T10:27:12.832Z,9.1
2018-12-06T10:28:12.767Z,9.13
2018-12-06T10:29:12.653Z,9.16
2018-12-06T10:30:12.680Z,9.14
2018-12-06T10:31:12.723Z,9.18
2018-12-06T10:32:12.650Z,9.19
2018-12-06T10:33:12.683Z,9.12
2018-12-06T10:34:12.812Z,9.13
2018-12-06T10:35:12.681Z,9.17
2018-12-06T10:36:12.619Z,9.2
2018-12-06T10:37:12.638Z,9.19
2018-12-06T10:38:12.666Z,9.18
2018-12-06T10:39:12.638Z,9.22
2018-12-06T10:40:13.017Z,9.27
2018-12-06T10:41:12.665Z,9.29
2018-12-06T10:42:12.655Z,9.33
2018-12-06T10:43:12.631Z,9.31
2018-12-06T10:44:12.684Z,9.35
2018-12-06T10:45:12.642Z,9.35
2018-12-06T10:46:12.670Z,9.35
2018-12-06T10:47:12.627Z,9.37
2018-12-06T10:48:12.738Z,9.47
2018-12-06T10:49:12.634Z,9.43
2018-12-06T10:50:12.635Z,9.42
2018-12-06T10:51:12.630Z,9.46
2018-12-06T10:52:12.706Z,9.46
2018-12-06T10:53:13.030Z,9.46
2018-12-06T10:54:12.639Z,9.42
2018-12-06T10:55:12.883Z,9.45
2018-12-06T10:56:12.695Z,9.48
2018-12-06T10:57:12.689Z,9.49
2018-12-06T10:58:12.660Z,9.49
2018-12-06T10:59:12.624Z,9.45
2018-12-06T11:00:12.752Z,9.47
2018-12-06T11:01:12.644Z,9.42
2018-12-06T11:02:12.735Z,9.46
2018-12-06T11:03:12.759Z,9.46
2018-12-06T11:04:12.864Z,9.47
2018-12-06T11:05:12.727Z,9.47
2018-12-06T11:06:12.605Z,9.47
2018-12-06T11:07:12.722Z,9.48
2018-12-06T11:08:12.599Z,9.48
2018-12-06T11:09:12.962Z,9.5
2018-12-06T11:10:12.778Z,9.47
2018-12-06T11:11:12.707Z,9.5
2018-12-06T11:12:12.624Z,9.5
2018-12-06T11:13:12.533Z,9.52
2018-12-06T11:14:13.114Z,9.54
2018-12-06T11:15:12.785Z,9.55
2018-12-06T11:16:12.674Z,9.55
2018-12-06T11:17:12.987Z,9.56
2018-12-06T11:18:12.654Z,9.57
2018-12-06T11:19:13.038Z,9.6
2018-12-06T11:20:12.888Z,9.66
2018-12-06T11:21:12.855Z,9.67
2018-12-06T11:22:12.836Z,9.65
2018-12-06T11:23:12.688Z,9.69
2018-12-06T11:24:12.615Z,9.67
2018-12-06T11:25:13.094Z,9.73
2018-12-06T11:26:12.689Z,9.68
2018-12-06T11:27:13.057Z,9.79
2018-12-06T11:28:12.735Z,9.73
2018-12-06T11:29:12.729Z,9.68
2018-12-06T11:30:12.730Z,9.66
2018-12-06T11:31:12.587Z,9.67
2018-12-06T11:32:12.841Z,9.68
2018-12-06T11:33:12.604Z,9.72
2018-12-06T11:34:12.973Z,9.76
2018-12-06T11:35:12.581Z,9.73
2018-12-06T11:36:12.746Z,9.74
2018-12-06T11:37:12.824Z,9.78
2018-12-06T11:38:12.726Z,9.77
2018-12-06T11:39:12.625Z,9.76
2018-12-06T11:40:12.552Z,9.73
2018-12-06T11:41:12.645Z,9.73
2018-12-06T11:42:12.738Z,9.76
2018-12-06T11:43:12.570Z,9.82
2018-12-06T11:44:12.814Z,9.82
2018-12-06T11:45:12.564Z,9.8
2018-12-06T11:46:12.589Z,9.86
2018-12-06T11:47:13.186Z,9.84
2018-12-06T11:48:12.700Z,9.85
2018-12-06T11:49:12.716Z,9.88
2018-12-06T11:50:12.597Z,9.85
2018-12-06T11:51:12.593Z,9.84
2018-12-06T11:52:12.871Z,9.86
2018-12-06T11:53:12.541Z,9.82
2018-12-06T11:54:12.574Z,9.79
2018-12-06T11:55:13.153Z,9.81
2018-12-06T11:56:12.615Z,9.8
2018-12-06T11:57:12.738Z,9.81
2018-12-06T11:58:12.656Z,9.83
2018-12-06T11:59:12.647Z,9.87
2018-12-06T12:00:12.670Z,9.94
2018-12-06T12:01:13.554Z,9.95
2018-12-06T12:02:12.584Z,9.95
2018-12-06T12:03:12.672Z,10.03
2018-12-06T12:04:12.833Z,10.05
2018-12-06T12:05:12.820Z,10.03
2018-12-06T12:06:13.493Z,10.03
2018-12-06T12:07:12.567Z,10.09
2018-12-06T12:08:12.776Z,10.13
2018-12-06T12:09:12.629Z,10.16
2018-12-06T12:10:12.715Z,10.14
2018-12-06T12:11:12.568Z,10.07
2018-12-06T12:12:12.995Z,10.07
2018-12-06T12:13:12.762Z,10.06
2018-12-06T12:14:12.534Z,10.01
2018-12-06T12:15:12.536Z,9.95
2018-12-06T12:16:12.524Z,10.03
2018-12-06T12:17:12.554Z,10
2018-12-06T12:18:12.559Z,10.02
2018-12-06T12:19:12.601Z,10.1
2018-12-06T12:20:12.486Z,10.12
2018-12-06T12:21:12.527Z,10.07
2018-12-06T12:22:12.547Z,10.06
2018-12-06T12:23:12.672Z,10.02
2018-12-06T12:24:12.495Z,10.05
2018-12-06T12:25:12.545Z,10.1
2018-12-06T12:26:12.603Z,10.12
2018-12-06T12:27:12.543Z,10.09
2018-12-06T12:28:12.511Z,10.08
2018-12-06T12:29:12.487Z,10.1
2018-12-06T12:30:12.494Z,10.05
2018-12-06T12:31:12.513Z,10.1
2018-12-06T12:32:12.499Z,10.12
2018-12-06T12:33:12.544Z,10.12
2018-12-06T12:34:12.544Z,10.16
2018-12-06T12:35:12.496Z,10.23
2018-12-06T12:36:12.622Z,10.17
2018-12-06T12:37:12.545Z,10.17
2018-12-06T12:38:12.498Z,10.13
2018-12-06T12:39:12.515Z,10.22
2018-12-06T12:40:12.538Z,10.2
2018-12-06T12:41:13.013Z,10.24
2018-12-06T12:42:12.794Z,10.24
2018-12-06T12:43:12.859Z,10.32
2018-12-06T12:44:12.979Z,10.37
2018-12-06T12:45:12.482Z,10.44
2018-12-06T12:46:12.741Z,10.45
2018-12-06T12:47:12.529Z,10.4
2018-12-06T12:48:12.636Z,10.43
2018-12-06T12:49:12.498Z,10.48
2018-12-06T12:50:13.299Z,10.4
2018-12-06T12:51:12.581Z,10.49
2018-12-06T12:52:12.630Z,10.52
2018-12-06T12:53:12.686Z,10.48
2018-12-06T12:54:12.801Z,10.51
2018-12-06T12:55:12.499Z,10.49
2018-12-06T12:56:12.660Z,10.46
2018-12-06T12:57:12.655Z,10.44
2018-12-06T12:58:12.846Z,10.35
2018-12-06T12:59:12.571Z,10.39
2018-12-06T13:00:12.877Z,10.41
2018-12-06T13:01:12.536Z,10.37
2018-12-06T13:02:12.522Z,10.4
2018-12-06T13:03:12.864Z,10.45
2018-12-06T13:04:12.483Z,10.42
2018-12-06T13:05:12.875Z,10.44
2018-12-06T13:06:12.478Z,10.49
2018-12-06T13:07:12.618Z,10.47
2018-12-06T13:08:12.610Z,10.35
2018-12-06T13:09:12.630Z,10.43
2018-12-06T13:10:12.674Z,10.38
2018-12-06T13:11:12.556Z,10.34
2018-12-06T13:12:12.584Z,10.38
2018-12-06T13:13:12.574Z,10.33
2018-12-06T13:14:12.468Z,10.31
2018-12-06T13:15:12.513Z,10.36
2018-12-06T13:16:12.440Z,10.32
2018-12-06T13:17:12.791Z,10.29
2018-12-06T13:18:12.495Z,10.32